Aérodrome :
LOGIN :

S'inscrire | Disclaimer

   EN    FR    IT 

 










Légende :    VFR   VFR Marginal   IFR   IFR Intensif   IFR Très Intensif
Visi : 
Plafond : 
>= 8 km
>= 3000ft
5 à 8 km
1000 à 3000 ft
1500m à 5 km
500 à 1000 ft
800 à 1500m
200 à 500 ft
< 800m
< 200 ft
Symboles :   Orages  Brouillard  Fortes neiges  Fortes précipitations  Vent > 20 kt
SIGMETs :   Divers  Orages  Givrage  Turbulence  Onde Orograph.  Cendres Volcan.







- Altitude de l'aérodrome : 1090 ft
- Code IATA : CFE
- Voir les cartes d'approche


LFLC - Clermont-Ferrand Auvergne

DERNIER METAR :
  • 181930Z AUTO 17020G31KT CAVOK 11/04 Q1015 NOSIG

METARs EXPIRÉS :
  • 181900Z AUTO 17020KT CAVOK 10/04 Q1015 TEMPO 18015G38KT
  • 181830Z AUTO 18025KT CAVOK 10/03 Q1015 TEMPO 18015G38KT
  • 181800Z AUTO 18027G37KT CAVOK 10/03 Q1014 TEMPO 18015G38KT
  • 181730Z AUTO 18019G30KT CAVOK 09/03 Q1014 NOSIG
  • 181700Z AUTO 19020G31KT CAVOK 10/03 Q1015 NOSIG

TAF AMD TAF LFLC
Valide du 18 à 19h jusqu'au 19 à 15h UTC


181900Z 1819/1915 16013KT CAVOK
TEMPO 1819/1824 18025G38KT
BECMG 1900/1902 BKN050 OVC100
BECMG 1906/1909 SCT040
BECMG 1912/1915 22007KT
ATIS : +33 4 73 62 74 38
Pas de NOTAMs connus pour ce terrain.
2 SIGMETs publiés pour la FIR Marseille (LFMM) :
 
Turbulence forte
LFMM SIGMET 3 VALID 181600/182000 LFPW
LFMM MARSEILLE FIR/UIR SEV TURB FCST WI N4630 E00430 - N4630 E00530 - N4445 E00515 - N4445 E00430 - N4630 E00430 SFC/FL050 STNR NC=
Turbulence forte
LFMM SIGMET 2 VALID 181600/182000 LFPW
LFMM MARSEILLE FIR/UIR SEV TURB FCST WI N4300 E00230 - N4500 E00245 - N4430 E00400 - N4300 E00230 SFC/FL060 STNR WKN=



MET'MAP, la Météo Aéronautique d'un coup d'oeil ! - Copyright ORBIFLY Décembre 2007 - Disclaimer

ORBIFLY MET'MAP TEAM :

Programmation & Développement : Alexandra Zaïnal
Conception & Développement : Baudouin d'Aumeries
Co-Programmation & Développement : Marc-Olivier Méhu
Soutien technique & logistique : Manuel Goepfert

Contact : metmap@orbifly.com




SOURCES & CREDITS :

   NOAA